Time;durP1;ratioP1;P1;durP2;ratioP2;P2;SDS_P1;SDS_P2;PMS_P1;PMS_P2;Temp;Humidity;BMP_temperature;BMP_pressure;BME280_temperature;BME280_humidity;BME280_pressure;Samples;Min_cycle;Max_cycle;Signal;HPM_P1;HPM_P2
2022/11/14 00:01:58;;;;;;;24.02;11.93;;;;;;;;;;5073686;28;20100;-67
2022/11/14 00:04:23;;;;;;;49.05;19.13;;;;;;;;;;5073389;28;20040;-66
2022/11/14 00:06:49;;;;;;;50.60;19.15;;;;;;;;;;5073279;28;20467;-66
2022/11/14 00:09:14;;;;;;;39.50;16.48;;;;;;;;;;5073443;28;20028;-66
2022/11/14 00:11:40;;;;;;;38.03;17.27;;;;;;;;;;5073391;28;20024;-67
2022/11/14 00:14:05;;;;;;;49.45;20.38;;;;;;;;;;5073407;28;20111;-67
2022/11/14 00:16:31;;;;;;;47.60;20.15;;;;;;;;;;5070116;28;20036;-67
2022/11/14 00:18:56;;;;;;;48.28;21.63;;;;;;;;;;5072973;28;20498;-67
2022/11/14 00:21:22;;;;;;;38.00;16.40;;;;;;;;;;5073010;28;20028;-67
2022/11/14 00:23:47;;;;;;;49.40;19.92;;;;;;;;;;5073166;28;20127;-67
2022/11/14 00:26:13;;;;;;;43.78;17.88;;;;;;;;;;5073233;28;20044;-66
2022/11/14 00:28:38;;;;;;;51.60;20.75;;;;;;;;;;5073085;28;20025;-66
2022/11/14 00:31:04;;;;;;;43.53;17.35;;;;;;;;;;5071217;28;20043;-66
2022/11/14 00:33:30;;;;;;;58.47;20.90;;;;;;;;;;5072873;28;20035;-66
2022/11/14 00:35:56;;;;;;;55.97;21.92;;;;;;;;;;5072900;28;20032;-65
2022/11/14 00:38:22;;;;;;;39.60;18.63;;;;;;;;;;5073015;28;20051;-67
2022/11/14 00:40:47;;;;;;;57.05;22.55;;;;;;;;;;5072829;28;20068;-66
2022/11/14 00:43:13;;;;;;;47.75;18.90;;;;;;;;;;5072850;28;20024;-67
2022/11/14 00:45:39;;;;;;;47.95;19.23;;;;;;;;;;5072548;28;20043;-67
2022/11/14 00:48:04;;;;;;;50.90;20.88;;;;;;;;;;5072670;28;20494;-66
2022/11/14 00:50:30;;;;;;;60.35;21.30;;;;;;;;;;5072508;28;20387;-66
2022/11/14 00:52:55;;;;;;;42.80;17.00;;;;;;;;;;5072782;28;20024;-66
2022/11/14 00:55:20;;;;;;;58.63;22.58;;;;;;;;;;5072640;28;20056;-65
2022/11/14 00:57:46;;;;;;;51.72;20.77;;;;;;;;;;5071148;28;20106;-65
2022/11/14 01:00:13;;;;;;;64.85;23.40;;;;;;;;;;5072634;28;20025;-65
2022/11/14 01:02:39;;;;;;;45.65;18.35;;;;;;;;;;5072494;28;20031;-67
2022/11/14 01:05:04;;;;;;;47.08;17.55;;;;;;;;;;5071762;28;20107;-67
2022/11/14 01:07:30;;;;;;;68.18;22.65;;;;;;;;;;5072480;28;20024;-66
2022/11/14 01:09:55;;;;;;;49.97;19.05;;;;;;;;;;5072019;28;20055;-66
2022/11/14 01:12:21;;;;;;;38.95;16.63;;;;;;;;;;5072241;28;20103;-66
2022/11/14 01:14:46;;;;;;;52.22;20.80;;;;;;;;;;5068268;28;20020;-67
2022/11/14 01:17:12;;;;;;;47.83;20.52;;;;;;;;;;5071049;28;20032;-66
2022/11/14 01:19:37;;;;;;;55.28;22.30;;;;;;;;;;5071486;28;20016;-67
2022/11/14 01:22:03;;;;;;;64.68;23.08;;;;;;;;;;5072196;28;20109;-67
2022/11/14 01:24:30;;;;;;;66.07;21.63;;;;;;;;;;5072126;28;20055;-67
2022/11/14 01:26:56;;;;;;;74.82;25.65;;;;;;;;;;5069253;28;20422;-66
2022/11/14 01:29:21;;;;;;;50.92;17.75;;;;;;;;;;5072169;28;20035;-65
2022/11/14 01:31:47;;;;;;;49.00;19.35;;;;;;;;;;5071312;28;20361;-65
2022/11/14 01:34:12;;;;;;;54.70;19.05;;;;;;;;;;5071744;28;20103;-65
2022/11/14 01:36:38;;;;;;;45.10;18.02;;;;;;;;;;5071557;28;20028;-65
2022/11/14 01:39:03;;;;;;;61.00;20.05;;;;;;;;;;5070575;28;20092;-66
2022/11/14 01:41:29;;;;;;;77.05;24.45;;;;;;;;;;5072295;28;20040;-66
2022/11/14 01:43:54;;;;;;;65.75;23.75;;;;;;;;;;5076212;28;20484;-64
2022/11/14 01:46:28;;;;;;;45.80;16.83;;;;;;;;;;5076484;28;20079;-64
2022/11/14 01:48:58;;;;;;;43.42;15.55;;;;;;;;;;5076118;28;20502;-67
2022/11/14 01:51:28;;;;;;;71.63;23.70;;;;;;;;;;5074205;28;20028;-67
2022/11/14 01:53:57;;;;;;;68.55;23.05;;;;;;;;;;5076230;28;20031;-66
2022/11/14 01:56:46;;;;;;;63.25;21.02;;;;;;;;;;5076059;28;20029;-66
2022/11/14 01:59:20;;;;;;;53.40;22.05;;;;;;;;;;5075724;28;20035;-67
2022/11/14 02:01:48;;;;;;;60.00;20.85;;;;;;;;;;5074775;28;20028;-67
2022/11/14 02:04:21;;;;;;;60.00;21.08;;;;;;;;;;5072830;28;20044;-65
2022/11/14 02:06:47;;;;;;;73.38;24.23;;;;;;;;;;5075550;28;20542;-65
2022/11/14 02:09:13;;;;;;;66.05;23.17;;;;;;;;;;5075498;28;20070;-66
2022/11/14 02:11:43;;;;;;;47.55;16.85;;;;;;;;;;5075568;28;20379;-66
2022/11/14 02:14:09;;;;;;;70.38;24.60;;;;;;;;;;5075349;28;20027;-66
2022/11/14 02:16:36;;;;;;;69.10;24.70;;;;;;;;;;5072651;28;20047;-65
2022/11/14 02:19:04;;;;;;;78.47;25.75;;;;;;;;;;5075367;28;20021;-66
2022/11/14 02:21:29;;;;;;;53.90;19.42;;;;;;;;;;5075267;28;20503;-64
2022/11/14 02:23:55;;;;;;;43.28;17.63;;;;;;;;;;5075239;28;20032;-64
2022/11/14 02:26:21;;;;;;;63.78;22.92;;;;;;;;;;5073970;28;20082;-67
2022/11/14 02:28:47;;;;;;;49.38;19.27;;;;;;;;;;5075205;28;20020;-65
2022/11/14 02:31:13;;;;;;;40.13;18.33;;;;;;;;;;5074954;28;20099;-66
2022/11/14 02:33:39;;;;;;;48.70;18.33;;;;;;;;;;5075339;28;20037;-66
2022/11/14 02:36:04;;;;;;;61.95;23.33;;;;;;;;;;5075539;28;20078;-66
2022/11/14 02:38:30;;;;;;;41.67;19.80;;;;;;;;;;5075468;28;20494;-66
2022/11/14 02:40:55;;;;;;;49.33;21.33;;;;;;;;;;5075221;28;20155;-66
2022/11/14 02:43:21;;;;;;;48.88;20.15;;;;;;;;;;5075419;28;20173;-64
2022/11/14 02:45:46;;;;;;;46.65;18.63;;;;;;;;;;5075242;28;20025;-64
2022/11/14 02:48:12;;;;;;;39.17;18.58;;;;;;;;;;5075270;28;20027;-64
2022/11/14 02:50:37;;;;;;;48.10;21.70;;;;;;;;;;5075313;28;20016;-66
2022/11/14 02:53:03;;;;;;;59.35;24.17;;;;;;;;;;5074700;28;20020;-65
2022/11/14 02:55:28;;;;;;;68.43;23.73;;;;;;;;;;5073961;28;20033;-65
2022/11/14 02:57:54;;;;;;;62.85;23.95;;;;;;;;;;5075130;28;20028;-64
2022/11/14 03:00:19;;;;;;;51.03;20.67;;;;;;;;;;5074904;28;20086;-66
2022/11/14 03:02:45;;;;;;;41.15;16.80;;;;;;;;;;5075092;28;20056;-67
2022/11/14 03:05:10;;;;;;;42.40;19.40;;;;;;;;;;5075203;28;20027;-68
2022/11/14 03:07:36;;;;;;;29.45;13.75;;;;;;;;;;5074857;28;20513;-66
2022/11/14 03:10:02;;;;;;;51.28;20.92;;;;;;;;;;5075158;28;20025;-66
2022/11/14 03:12:27;;;;;;;52.28;19.80;;;;;;;;;;5074935;28;20432;-64
2022/11/14 03:14:53;;;;;;;54.00;21.63;;;;;;;;;;5074476;28;20078;-64
2022/11/14 03:17:18;;;;;;;50.22;19.60;;;;;;;;;;5074711;28;20029;-66
2022/11/14 03:19:44;;;;;;;61.38;26.35;;;;;;;;;;5074629;28;20387;-65
2022/11/14 03:22:09;;;;;;;53.22;23.27;;;;;;;;;;5074757;28;20031;-67
2022/11/14 03:24:35;;;;;;;53.95;22.60;;;;;;;;;;5074597;28;20429;-66
2022/11/14 03:27:00;;;;;;;56.47;23.40;;;;;;;;;;5074491;28;20028;-67
2022/11/14 03:29:26;;;;;;;58.17;23.42;;;;;;;;;;5074408;28;20115;-66
2022/11/14 03:31:51;;;;;;;37.92;20.38;;;;;;;;;;5074418;28;20470;-66
2022/11/14 03:34:17;;;;;;;50.08;21.02;;;;;;;;;;5074384;28;20155;-65
2022/11/14 03:36:42;;;;;;;57.60;23.65;;;;;;;;;;5074365;28;20025;-64
2022/11/14 03:39:08;;;;;;;54.97;20.77;;;;;;;;;;5074223;28;20450;-67
2022/11/14 03:41:33;;;;;;;52.55;19.70;;;;;;;;;;5074206;28;20048;-65
2022/11/14 03:43:59;;;;;;;38.90;15.00;;;;;;;;;;5074266;28;20030;-67
2022/11/14 03:46:25;;;;;;;32.00;15.95;;;;;;;;;;5074051;28;20472;-66
2022/11/14 03:48:50;;;;;;;59.72;24.27;;;;;;;;;;5074174;28;20104;-66
2022/11/14 03:51:15;;;;;;;44.95;18.48;;;;;;;;;;5074108;28;20028;-66
2022/11/14 03:53:41;;;;;;;61.92;21.85;;;;;;;;;;5074122;28;20442;-67
2022/11/14 03:56:06;;;;;;;34.42;16.35;;;;;;;;;;5073883;28;20028;-66
2022/11/14 03:58:32;;;;;;;49.78;17.90;;;;;;;;;;5073687;28;20484;-67
2022/11/14 04:00:58;;;;;;;56.67;21.88;;;;;;;;;;5073923;28;20081;-65
2022/11/14 04:03:24;;;;;;;47.33;17.42;;;;;;;;;;5073831;28;20040;-67
2022/11/14 04:05:49;;;;;;;69.00;20.15;;;;;;;;;;5072957;28;20063;-64
2022/11/14 04:08:16;;;;;;;36.28;15.60;;;;;;;;;;5073628;28;20476;-67
2022/11/14 04:10:41;;;;;;;58.28;22.67;;;;;;;;;;5073792;28;20048;-65
2022/11/14 04:13:07;;;;;;;61.58;23.70;;;;;;;;;;5072130;28;20032;-67
2022/11/14 04:15:33;;;;;;;59.22;22.25;;;;;;;;;;5073472;28;20035;-64
2022/11/14 04:17:59;;;;;;;38.90;16.75;;;;;;;;;;5073610;28;20108;-65
2022/11/14 04:20:24;;;;;;;56.25;20.52;;;;;;;;;;5073507;28;20360;-67
2022/11/14 04:22:50;;;;;;;39.15;16.58;;;;;;;;;;5073459;28;20111;-64
2022/11/14 04:25:15;;;;;;;55.85;21.30;;;;;;;;;;5073466;28;20054;-64
2022/11/14 04:27:41;;;;;;;61.33;21.55;;;;;;;;;;5073058;28;20028;-65
2022/11/14 04:30:07;;;;;;;60.33;21.15;;;;;;;;;;5073340;28;20032;-64
2022/11/14 04:32:33;;;;;;;38.05;16.75;;;;;;;;;;5073138;28;20410;-64
2022/11/14 04:34:58;;;;;;;28.55;12.35;;;;;;;;;;5073348;28;20064;-67
2022/11/14 04:37:24;;;;;;;59.67;22.77;;;;;;;;;;5073218;28;20035;-65
2022/11/14 04:39:49;;;;;;;68.40;23.50;;;;;;;;;;5072905;28;20041;-66
2022/11/14 04:42:15;;;;;;;43.22;16.58;;;;;;;;;;5072924;28;20040;-64
2022/11/14 04:44:40;;;;;;;53.38;19.67;;;;;;;;;;5073158;28;20036;-65
2022/11/14 04:47:06;;;;;;;67.95;23.05;;;;;;;;;;5073068;28;20031;-66
2022/11/14 04:49:31;;;;;;;62.63;21.33;;;;;;;;;;5073138;28;20055;-67
2022/11/14 04:51:57;;;;;;;56.15;20.48;;;;;;;;;;5073026;28;20050;-66
2022/11/14 04:54:22;;;;;;;49.40;20.13;;;;;;;;;;5072823;28;20024;-67
2022/11/14 04:56:48;;;;;;;62.05;20.17;;;;;;;;;;5072370;28;20460;-67
2022/11/14 04:59:13;;;;;;;65.28;22.58;;;;;;;;;;5072872;28;20047;-67
2022/11/14 05:01:39;;;;;;;65.50;20.58;;;;;;;;;;5073003;28;20040;-67
2022/11/14 05:04:04;;;;;;;51.22;18.95;;;;;;;;;;5072850;28;20066;-65
2022/11/14 05:06:30;;;;;;;59.90;19.75;;;;;;;;;;5072788;28;20020;-67
2022/11/14 05:08:55;;;;;;;44.25;15.32;;;;;;;;;;5072860;28;20282;-66
2022/11/14 05:11:21;;;;;;;49.38;20.13;;;;;;;;;;5072576;28;20379;-65
2022/11/14 05:13:46;;;;;;;50.45;17.67;;;;;;;;;;5072561;28;20055;-66
2022/11/14 05:16:12;;;;;;;58.47;21.92;;;;;;;;;;5072177;28;20035;-66
2022/11/14 05:18:38;;;;;;;65.38;21.17;;;;;;;;;;5072645;28;20357;-66
2022/11/14 05:21:04;;;;;;;70.03;24.58;;;;;;;;;;5072441;28;20042;-65
2022/11/14 05:23:29;;;;;;;55.05;21.00;;;;;;;;;;5072659;28;20134;-64
2022/11/14 05:26:04;;;;;;;45.70;20.88;;;;;;;;;;5072408;28;20361;-64
2022/11/14 05:28:30;;;;;;;70.15;24.17;;;;;;;;;;5072488;28;20040;-64
2022/11/14 05:31:07;;;;;;;59.53;20.90;;;;;;;;;;5072521;28;20025;-65
2022/11/14 05:33:34;;;;;;;60.70;20.70;;;;;;;;;;5072392;28;20055;-64
2022/11/14 05:36:07;;;;;;;52.17;16.92;;;;;;;;;;5072547;28;20032;-64
2022/11/14 05:38:33;;;;;;;66.20;21.20;;;;;;;;;;5072249;28;20116;-65
2022/11/14 05:40:58;;;;;;;76.38;24.13;;;;;;;;;;5072054;28;20084;-65
2022/11/14 05:43:27;;;;;;;67.43;22.05;;;;;;;;;;5072338;28;20032;-67
2022/11/14 05:45:58;;;;;;;53.08;18.65;;;;;;;;;;5072329;28;20032;-66
2022/11/14 05:48:23;;;;;;;75.80;23.27;;;;;;;;;;5072380;28;20031;-67
2022/11/14 05:50:53;;;;;;;61.55;20.85;;;;;;;;;;5072328;28;20029;-65
2022/11/14 05:53:19;;;;;;;77.50;27.55;;;;;;;;;;5072195;28;20107;-66
2022/11/14 05:55:44;;;;;;;71.30;27.27;;;;;;;;;;5072256;28;20032;-66
2022/11/14 05:58:09;;;;;;;84.63;28.50;;;;;;;;;;5072250;28;20107;-65
2022/11/14 06:00:35;;;;;;;76.85;25.05;;;;;;;;;;5072445;28;20028;-67
2022/11/14 06:03:00;;;;;;;75.65;24.58;;;;;;;;;;5072154;28;20029;-65
2022/11/14 06:05:26;;;;;;;68.38;24.13;;;;;;;;;;5072120;28;20035;-65
2022/11/14 06:07:58;;;;;;;57.40;20.10;;;;;;;;;;5071981;28;20033;-66
2022/11/14 06:10:24;;;;;;;68.25;22.05;;;;;;;;;;5072023;28;20056;-66
2022/11/14 06:12:49;;;;;;;54.88;21.83;;;;;;;;;;5072252;28;20411;-68
2022/11/14 06:15:15;;;;;;;73.63;22.48;;;;;;;;;;5072087;28;20028;-67
2022/11/14 06:17:40;;;;;;;50.60;20.17;;;;;;;;;;5072133;28;20024;-67
2022/11/14 06:20:06;;;;;;;50.55;19.13;;;;;;;;;;5072101;28;20021;-67
2022/11/14 06:22:33;;;;;;;42.95;17.27;;;;;;;;;;5071636;28;20052;-65
2022/11/14 06:24:59;;;;;;;51.70;19.05;;;;;;;;;;5071790;28;20090;-66
2022/11/14 06:27:24;;;;;;;30.42;12.90;;;;;;;;;;5071906;28;20028;-65
2022/11/14 06:29:50;;;;;;;41.80;15.32;;;;;;;;;;5074169;28;20028;-67
2022/11/14 06:32:15;;;;;;;64.53;23.80;;;;;;;;;;5075230;28;20259;-67
2022/11/14 06:34:41;;;;;;;48.03;18.17;;;;;;;;;;5075403;28;20036;-67
2022/11/14 06:37:06;;;;;;;69.30;23.05;;;;;;;;;;5075084;28;20082;-67
2022/11/14 06:39:32;;;;;;;61.83;22.70;;;;;;;;;;5075344;28;20072;-67
2022/11/14 06:41:57;;;;;;;58.33;20.45;;;;;;;;;;5075477;28;20052;-68
2022/11/14 06:44:22;;;;;;;62.00;21.83;;;;;;;;;;5075497;28;20111;-68
2022/11/14 06:46:48;;;;;;;59.20;19.20;;;;;;;;;;5075283;28;20036;-67
2022/11/14 06:49:13;;;;;;;40.17;16.35;;;;;;;;;;5075275;28;20031;-66
2022/11/14 06:51:39;;;;;;;57.17;20.95;;;;;;;;;;5075045;28;20103;-67
2022/11/14 06:54:04;;;;;;;49.72;19.50;;;;;;;;;;5074785;28;20059;-66
2022/11/14 06:56:30;;;;;;;70.90;24.23;;;;;;;;;;5075117;28;20048;-66
2022/11/14 06:58:55;;;;;;;56.00;19.95;;;;;;;;;;5075184;28;20029;-65
2022/11/14 07:01:27;;;;;;;63.90;23.27;;;;;;;;;;5075209;28;20483;-67
2022/11/14 07:03:53;;;;;;;64.93;22.55;;;;;;;;;;5074870;28;20526;-68
2022/11/14 07:06:21;;;;;;;53.33;18.73;;;;;;;;;;5074796;28;20360;-66
2022/11/14 07:08:47;;;;;;;55.92;20.00;;;;;;;;;;5074829;28;20388;-65
2022/11/14 07:11:25;;;;;;;70.45;23.98;;;;;;;;;;5074866;28;20037;-65
2022/11/14 07:14:01;;;;;;;54.45;18.45;;;;;;;;;;5074620;28;20027;-68
2022/11/14 07:16:29;;;;;;;67.70;23.98;;;;;;;;;;5074376;28;20110;-66
2022/11/14 07:18:58;;;;;;;75.40;24.42;;;;;;;;;;5074624;28;20031;-68
2022/11/14 07:21:25;;;;;;;70.07;23.30;;;;;;;;;;5074613;28;20036;-67
2022/11/14 07:23:50;;;;;;;40.45;16.63;;;;;;;;;;5074787;28;20024;-65
2022/11/14 07:26:16;;;;;;;67.88;22.05;;;;;;;;;;5074632;28;20032;-66
2022/11/14 07:28:43;;;;;;;53.72;19.92;;;;;;;;;;5074325;28;20103;-68
2022/11/14 07:31:14;;;;;;;53.75;20.23;;;;;;;;;;5074309;28;20365;-67
2022/11/14 07:33:41;;;;;;;42.47;17.05;;;;;;;;;;5072953;28;20064;-68
2022/11/14 07:36:08;;;;;;;64.90;22.58;;;;;;;;;;5072367;28;20081;-67
2022/11/14 07:38:34;;;;;;;48.63;17.05;;;;;;;;;;5073869;28;20032;-67
2022/11/14 07:41:05;;;;;;;44.50;16.25;;;;;;;;;;5073884;28;20044;-67
2022/11/14 07:43:31;;;;;;;56.28;21.45;;;;;;;;;;5074061;28;20395;-66
2022/11/14 07:46:07;;;;;;;48.67;19.42;;;;;;;;;;5072643;28;20037;-68
2022/11/14 07:48:33;;;;;;;55.20;18.83;;;;;;;;;;5073774;28;20024;-65
2022/11/14 07:51:04;;;;;;;59.33;20.60;;;;;;;;;;5073513;28;20099;-65
2022/11/14 07:53:29;;;;;;;61.22;20.98;;;;;;;;;;5073848;28;20376;-65
2022/11/14 07:55:56;;;;;;;68.30;24.33;;;;;;;;;;5073636;28;20024;-66
2022/11/14 07:58:22;;;;;;;33.30;14.70;;;;;;;;;;5073660;28;20380;-65
2022/11/14 08:00:48;;;;;;;52.35;17.35;;;;;;;;;;5073786;28;20097;-65
2022/11/14 08:03:13;;;;;;;37.35;15.02;;;;;;;;;;5073517;28;20435;-65
2022/11/14 08:05:39;;;;;;;45.67;19.70;;;;;;;;;;5068950;28;20031;-66
2022/11/14 08:08:05;;;;;;;50.13;19.17;;;;;;;;;;5071142;28;20029;-65
2022/11/14 08:10:30;;;;;;;46.03;20.08;;;;;;;;;;5072612;28;20028;-65
2022/11/14 08:13:04;;;;;;;66.10;23.60;;;;;;;;;;5073060;28;20112;-64
2022/11/14 08:15:30;;;;;;;43.10;19.10;;;;;;;;;;5072270;28;20466;-65
2022/11/14 08:17:57;;;;;;;58.03;21.90;;;;;;;;;;5072989;28;20031;-64
2022/11/14 08:20:22;;;;;;;56.95;20.73;;;;;;;;;;5073157;28;20025;-64
2022/11/14 08:22:48;;;;;;;56.95;21.08;;;;;;;;;;5073376;28;20031;-64
2022/11/14 08:25:13;;;;;;;51.90;21.60;;;;;;;;;;5073263;28;20027;-65
2022/11/14 08:27:39;;;;;;;61.35;23.83;;;;;;;;;;5072843;28;20025;-65
2022/11/14 08:30:05;;;;;;;61.58;22.17;;;;;;;;;;5072855;28;20021;-65
2022/11/14 08:32:30;;;;;;;46.40;18.58;;;;;;;;;;5065643;28;20024;-65
2022/11/14 08:34:56;;;;;;;49.30;21.35;;;;;;;;;;5072902;28;20038;-65
2022/11/14 08:37:21;;;;;;;58.75;22.98;;;;;;;;;;5072942;28;20028;-65
2022/11/14 08:39:46;;;;;;;36.97;17.25;;;;;;;;;;5072404;28;20498;-65
2022/11/14 08:42:12;;;;;;;51.30;20.42;;;;;;;;;;5072611;28;20028;-68
2022/11/14 08:44:38;;;;;;;53.00;21.67;;;;;;;;;;5071367;28;20465;-66
2022/11/14 08:47:03;;;;;;;40.25;18.23;;;;;;;;;;5072355;28;20028;-65
2022/11/14 08:49:30;;;;;;;65.38;24.65;;;;;;;;;;5071732;28;20044;-65
2022/11/14 08:51:56;;;;;;;62.55;23.40;;;;;;;;;;5070886;28;20027;-65
2022/11/14 08:54:21;;;;;;;48.33;20.08;;;;;;;;;;5072492;28;20047;-67
2022/11/14 08:56:47;;;;;;;47.05;19.77;;;;;;;;;;5070795;28;20074;-67
2022/11/14 08:59:12;;;;;;;49.13;20.02;;;;;;;;;;5070769;28;20021;-68
2022/11/14 09:01:38;;;;;;;42.97;19.08;;;;;;;;;;5070662;28;20074;-66
2022/11/14 09:04:03;;;;;;;51.53;21.40;;;;;;;;;;5071104;28;20136;-68
2022/11/14 09:06:29;;;;;;;52.72;22.50;;;;;;;;;;5070986;28;20517;-67
2022/11/14 09:08:54;;;;;;;38.45;17.63;;;;;;;;;;5071045;28;20391;-68
2022/11/14 09:11:20;;;;;;;53.70;23.13;;;;;;;;;;5071636;28;20040;-67
2022/11/14 09:13:45;;;;;;;61.78;23.42;;;;;;;;;;5072746;28;20032;-67
2022/11/14 09:16:11;;;;;;;49.30;20.75;;;;;;;;;;5072380;28;20024;-67
2022/11/14 09:18:37;;;;;;;42.20;17.27;;;;;;;;;;5072750;28;20021;-66
2022/11/14 09:21:05;;;;;;;45.78;18.15;;;;;;;;;;5072803;28;20021;-67
2022/11/14 09:23:31;;;;;;;48.88;21.05;;;;;;;;;;5072865;28;20111;-68
2022/11/14 09:25:56;;;;;;;61.55;24.50;;;;;;;;;;5072651;28;20029;-68
2022/11/14 09:28:25;;;;;;;35.03;17.05;;;;;;;;;;5072211;28;20028;-68
2022/11/14 09:30:50;;;;;;;55.42;24.08;;;;;;;;;;5072398;28;20031;-66
2022/11/14 09:33:16;;;;;;;39.85;18.23;;;;;;;;;;5072381;28;20025;-67
2022/11/14 09:35:41;;;;;;;57.60;24.45;;;;;;;;;;5072409;28;20475;-68
2022/11/14 09:38:09;;;;;;;48.50;21.52;;;;;;;;;;5072545;28;20024;-66
2022/11/14 09:41:04;;;;;;;43.13;19.73;;;;;;;;;;5072293;28;20048;-66
2022/11/14 09:43:33;;;;;;;40.42;17.38;;;;;;;;;;5072579;28;20479;-65
2022/11/14 09:46:01;;;;;;;51.00;22.17;;;;;;;;;;5072124;28;20395;-68
2022/11/14 09:48:29;;;;;;;47.50;21.13;;;;;;;;;;5072258;28;20029;-65
2022/11/14 09:51:23;;;;;;;44.63;19.92;;;;;;;;;;5072391;28;20071;-67
2022/11/14 09:54:23;;;;;;;56.00;23.35;;;;;;;;;;5068042;28;20047;-67
2022/11/14 09:56:49;;;;;;;52.13;22.17;;;;;;;;;;5072341;28;20126;-67
2022/11/14 09:59:15;;;;;;;55.92;24.35;;;;;;;;;;5072290;28;20435;-67
2022/11/14 10:01:54;;;;;;;43.65;18.73;;;;;;;;;;5071984;28;20134;-67
2022/11/14 10:04:37;;;;;;;44.90;18.55;;;;;;;;;;5075656;28;20125;-66
2022/11/14 10:07:11;;;;;;;41.72;17.92;;;;;;;;;;5076072;28;20024;-65
2022/11/14 10:10:11;;;;;;;39.40;19.95;;;;;;;;;;5076208;28;20036;-65
2022/11/14 10:12:46;;;;;;;45.33;18.15;;;;;;;;;;5034037;28;20481;-66
2022/11/14 10:15:41;;;;;;;38.13;16.38;;;;;;;;;;5033756;28;20520;-65
2022/11/14 10:18:09;;;;;;;38.40;17.83;;;;;;;;;;5033951;28;20041;-66
2022/11/14 10:20:59;;;;;;;53.50;21.60;;;;;;;;;;5033910;28;20117;-68
2022/11/14 10:23:53;;;;;;;30.83;15.65;;;;;;;;;;5033375;28;20038;-67
2022/11/14 10:26:30;;;;;;;47.22;20.60;;;;;;;;;;5033318;28;20075;-65
2022/11/14 10:29:21;;;;;;;54.22;22.55;;;;;;;;;;5033464;28;20530;-65
2022/11/14 10:32:18;;;;;;;48.42;20.60;;;;;;;;;;5033223;28;20061;-65
2022/11/14 10:34:59;;;;;;;43.38;19.23;;;;;;;;;;5033532;28;20362;-67
2022/11/14 10:37:50;;;;;;;45.80;20.20;;;;;;;;;;5033525;28;20042;-66
2022/11/14 10:40:20;;;;;;;42.28;20.25;;;;;;;;;;5033275;28;20053;-67
2022/11/14 10:42:50;;;;;;;50.05;21.70;;;;;;;;;;5033554;28;20041;-65
2022/11/14 10:45:20;;;;;;;43.03;20.08;;;;;;;;;;5033326;28;20051;-65
2022/11/14 10:47:53;;;;;;;51.95;24.10;;;;;;;;;;5033415;28;20484;-65
2022/11/14 10:50:23;;;;;;;57.90;23.92;;;;;;;;;;5052379;28;20484;-66
2022/11/14 10:52:55;;;;;;;62.75;25.77;;;;;;;;;;5055354;28;20036;-65
2022/11/14 10:55:23;;;;;;;24.98;10.32;;;;;;;;;;5055383;28;20033;-65
2022/11/14 10:57:48;;;;;;;58.40;24.17;;;;;;;;;;5054992;28;20105;-65
2022/11/14 11:00:21;;;;;;;51.72;21.83;;;;;;;;;;5053903;28;20064;-67
2022/11/14 11:02:53;;;;;;;49.80;19.90;;;;;;;;;;5055327;28;20052;-66
2022/11/14 11:05:24;;;;;;;46.35;20.27;;;;;;;;;;5055276;28;20021;-66
2022/11/14 11:13:34;;;;;;;48.28;20.45;;;;;;;;;;5054656;28;20043;-68
2022/11/14 11:16:03;;;;;;;48.47;20.15;;;;;;;;;;5054777;28;20108;-67
2022/11/14 11:18:34;;;;;;;59.63;24.65;;;;;;;;;;5054782;28;20422;-65
2022/11/14 11:21:05;;;;;;;45.17;19.92;;;;;;;;;;5054868;28;20138;-67
2022/11/14 11:23:31;;;;;;;53.30;22.58;;;;;;;;;;5054747;28;20025;-66
2022/11/14 11:26:08;;;;;;;35.58;17.02;;;;;;;;;;5054679;28;20083;-67
2022/11/14 11:28:35;;;;;;;36.72;19.00;;;;;;;;;;5054289;28;20021;-67
2022/11/14 11:31:09;;;;;;;41.05;19.30;;;;;;;;;;5054497;28;20044;-65
2022/11/14 11:33:37;;;;;;;46.60;18.17;;;;;;;;;;5072203;28;20430;-65
2022/11/14 11:36:10;;;;;;;43.08;19.23;;;;;;;;;;5074273;28;20043;-66
2022/11/14 11:38:35;;;;;;;47.80;20.35;;;;;;;;;;5074467;28;20055;-65
2022/11/14 11:41:27;;;;;;;50.97;23.00;;;;;;;;;;5073796;28;20076;-68
2022/11/14 11:44:10;;;;;;;42.88;18.25;;;;;;;;;;5073811;28;20051;-66
2022/11/14 11:46:50;;;;;;;52.75;22.52;;;;;;;;;;5074355;28;20024;-66
2022/11/14 11:49:39;;;;;;;46.73;22.50;;;;;;;;;;5074357;28;20024;-68
2022/11/14 11:52:12;;;;;;;43.40;19.58;;;;;;;;;;5074348;28;20253;-68
2022/11/14 11:55:08;;;;;;;40.63;18.77;;;;;;;;;;5073962;28;20082;-68
2022/11/14 11:57:47;;;;;;;37.22;19.65;;;;;;;;;;5073566;28;20024;-66
2022/11/14 12:00:19;;;;;;;43.17;20.58;;;;;;;;;;5074002;28;20024;-66
2022/11/14 12:02:48;;;;;;;50.03;18.33;;;;;;;;;;5074020;28;20025;-67
2022/11/14 12:05:39;;;;;;;45.30;20.30;;;;;;;;;;5073862;28;20075;-68
2022/11/14 12:08:15;;;;;;;28.20;13.07;;;;;;;;;;5073615;28;20017;-67
2022/11/14 12:10:41;;;;;;;48.10;20.98;;;;;;;;;;5073579;28;20479;-68
2022/11/14 12:13:25;;;;;;;46.22;20.83;;;;;;;;;;5073688;28;20036;-69
2022/11/14 12:16:11;;;;;;;51.30;23.13;;;;;;;;;;5073523;28;20033;-69
2022/11/14 12:19:01;;;;;;;39.65;17.77;;;;;;;;;;5073495;28;20032;-68
2022/11/14 12:21:35;;;;;;;44.17;22.17;;;;;;;;;;5073627;28;20032;-68
2022/11/14 12:24:19;;;;;;;37.30;17.70;;;;;;;;;;5073556;28;20028;-68
2022/11/14 12:27:18;;;;;;;50.30;22.63;;;;;;;;;;5072450;28;20029;-69
2022/11/14 12:29:49;;;;;;;38.38;17.58;;;;;;;;;;5073351;28;20039;-67
2022/11/14 12:32:25;;;;;;;43.22;19.70;;;;;;;;;;5073109;28;20107;-66
2022/11/14 12:34:51;;;;;;;27.05;14.20;;;;;;;;;;5073377;28;20500;-69
2022/11/14 12:37:34;;;;;;;29.33;15.43;;;;;;;;;;5073155;28;20123;-67
2022/11/14 12:40:05;;;;;;;28.40;14.50;;;;;;;;;;5072884;28;20044;-68
2022/11/14 12:42:31;;;;;;;35.70;16.80;;;;;;;;;;5073070;28;20026;-67
2022/11/14 12:44:57;;;;;;;31.63;14.85;;;;;;;;;;5073126;28;20036;-68
2022/11/14 12:47:25;;;;;;;41.45;18.80;;;;;;;;;;5073138;28;20028;-66
2022/11/14 12:49:53;;;;;;;31.23;15.30;;;;;;;;;;5072755;28;20552;-66
2022/11/14 12:52:43;;;;;;;30.08;14.55;;;;;;;;;;5073074;28;20060;-68
2022/11/14 12:55:24;;;;;;;52.15;23.15;;;;;;;;;;5071433;28;20387;-66
2022/11/14 12:58:17;;;;;;;41.15;18.23;;;;;;;;;;5072908;28;20047;-68
2022/11/14 13:01:22;;;;;;;52.25;22.67;;;;;;;;;;5073032;28;20024;-66
2022/11/14 13:04:05;;;;;;;35.28;15.07;;;;;;;;;;5066755;28;20041;-68
2022/11/14 13:06:45;;;;;;;51.05;19.75;;;;;;;;;;5072793;28;20024;-65
2022/11/14 13:09:23;;;;;;;;;;;;;;;;;;5073053;28;20025;-65
2022/11/14 13:23:28;;;;;;;47.17;23.42;;;;;;;;;;5052320;28;20091;-66
2022/11/14 13:26:17;;;;;;;35.08;18.38;;;;;;;;;;5052217;28;20033;-65
2022/11/14 13:28:48;;;;;;;47.90;23.15;;;;;;;;;;5043120;28;20040;-66
2022/11/14 13:31:25;;;;;;;48.00;23.10;;;;;;;;;;5058409;28;20021;-66
2022/11/14 13:33:58;;;;;;;53.28;23.17;;;;;;;;;;5072348;28;20103;-66
2022/11/14 13:36:44;;;;;;;53.15;25.20;;;;;;;;;;5072802;28;20064;-65
2022/11/14 13:39:22;;;;;;;56.78;25.83;;;;;;;;;;5078651;28;20029;-66
2022/11/14 13:41:57;;;;;;;44.35;21.67;;;;;;;;;;5078414;28;20460;-65
2022/11/14 13:44:22;;;;;;;55.17;24.60;;;;;;;;;;5078951;28;20387;-66
2022/11/14 13:46:57;;;;;;;54.70;26.23;;;;;;;;;;5078755;28;20020;-65
2022/11/14 13:49:36;;;;;;;48.65;22.15;;;;;;;;;;5078930;28;20028;-67
2022/11/14 13:52:01;;;;;;;54.67;25.17;;;;;;;;;;5078826;28;20032;-66
2022/11/14 13:54:28;;;;;;;36.72;16.35;;;;;;;;;;5078793;28;20025;-66
2022/11/14 13:57:26;;;;;;;53.50;24.10;;;;;;;;;;5078774;28;20379;-65
2022/11/14 14:00:07;;;;;;;52.25;23.70;;;;;;;;;;5078720;28;20032;-67
2022/11/14 14:02:54;;;;;;;48.50;23.67;;;;;;;;;;5078855;28;20032;-65
2022/11/14 14:05:31;;;;;;;48.58;19.58;;;;;;;;;;5078849;28;20034;-66
2022/11/14 14:08:40;;;;;;;30.20;13.25;;;;;;;;;;5078422;28;20490;-65
2022/11/14 14:11:14;;;;;;;43.92;18.27;;;;;;;;;;5078577;28;20043;-65
2022/11/14 14:14:04;;;;;;;52.65;23.48;;;;;;;;;;5078629;28;20028;-65
2022/11/14 14:16:51;;;;;;;55.50;23.13;;;;;;;;;;5078519;28;20033;-67
2022/11/14 14:19:38;;;;;;;43.38;19.85;;;;;;;;;;5077319;28;20736;-65
2022/11/14 14:22:09;;;;;;;45.88;19.55;;;;;;;;;;5078532;28;20486;-66
2022/11/14 14:24:56;;;;;;;49.05;19.35;;;;;;;;;;5078729;28;20383;-66
2022/11/14 14:27:36;;;;;;;58.72;23.23;;;;;;;;;;5078467;28;20059;-65
2022/11/14 14:30:09;;;;;;;47.30;21.45;;;;;;;;;;5078744;28;20021;-67
2022/11/14 14:32:34;;;;;;;49.10;22.15;;;;;;;;;;5078374;28;20099;-66
2022/11/14 14:35:26;;;;;;;51.45;21.50;;;;;;;;;;5077482;28;21437;-66
2022/11/14 14:37:54;;;;;;;44.47;19.20;;;;;;;;;;5076000;28;20025;-67
2022/11/14 14:40:27;;;;;;;55.22;23.13;;;;;;;;;;5077694;28;20495;-66
2022/11/14 14:42:54;;;;;;;46.30;20.60;;;;;;;;;;5076232;28;20391;-67
2022/11/14 14:45:21;;;;;;;55.97;26.00;;;;;;;;;;5078001;28;20020;-66
2022/11/14 14:47:57;;;;;;;51.83;23.70;;;;;;;;;;5074704;28;20058;-68
2022/11/14 14:50:27;;;;;;;50.95;20.88;;;;;;;;;;5073970;28;20103;-68
2022/11/14 14:53:00;;;;;;;59.97;24.90;;;;;;;;;;5074499;28;20032;-66